Thomaston, ME

7:02 AM EDT on April 23, 2017 (GMT -0400)
Upper Park Street | | Change Station

Elev 79 ft 44.10 °N, 69.13 °W | Updated 13 days ago

Overcast
Overcast
44.0 °F
Feels Like 39 °F
N
8.6
Wind Variable Wind from WNW
Gusts 8.6 mph

Today
High -- | Low -- °F
--% Chance of Precip.
Yesterday
High -- | Low -- °F
Precip. -- in
Pressure 30.01 in
Visibility 10.0 miles
Clouds Overcast 500 ft
Windchill 39 °F
Dew Point 32 °F
Humidity 62%
Rainfall 0.01 in
Snow Depth Not available.
5:39 AM 7:30 PM
Waning Crescent, 12% visible
METAR KRKD 231056Z AUTO 00000KT 10SM OVC005 03/03 A3000 RMK AO2 SLP162 T00330028
Pressure 30.01 in
Visibility 10.0 miles
Clouds Overcast 500 ft
Windchill 39 °F
Dew Point 32 °F
Humidity 62%
Rainfall 0.01 in
Snow Depth Not available.
5:39 AM 7:30 PM
Waning Crescent, 12% visible
METAR KRKD 231056Z AUTO 00000KT 10SM OVC005 03/03 A3000 RMK AO2 SLP162 T00330028

Get Severe Weather Alerts

Thanks for signing up!

Be on the lookout for a verification email in your inbox.

You'll start receiving the daily forecast at 8 AM.

×

10-Day Weather Forecast

Almanac

Astronomy

Apr. 23, 2017 Rise Set
Actual Time
Civil Twilight
Nautical Twilight
Astronomical Twilight
Moon
Length of Visible Light
Length of Day
Tomorrow will be .
, % of the Moon is Illuminated

Today's Extremes

State Highs State Lows

Community

WunderPhotos

WunderBlog® & News

Nearby

Air Quality

  Air Quality AQ Index Pollutant
Not available.

Snow Depth

Station Depth Elevation

Earthquake Activity

City Distance Mag. Time & Date
Minimum magnitude displayed is 2.5.

Coastal Water Temperatures

Place Temperature

Stations

Nearby Weather Stations

Station Location Temp. Windchill Dew Point Humidity Wind Precip. Elev Updated Type
                   

Watches & Warnings

There are currently no watches in effect.